Terminal Aerodrome Forecast
Issued by NWS Charleston, SC

Home | Current Version | Previous Version | Text Only | Print | Product List | Glossary On
Versions: 1 2 3 4 5 6 7 8 9 10 11 12 13 14 15 16 17
747
FTUS42 KCHS 010304 AAA
TAFSAV
TAF AMD
KSAV 010304Z 0103/0124 16012KT P6SM SCT020
      TEMPO 0103/0106 BKN020
     FM010600 17010KT P6SM BKN015
     FM011400 19014G20KT P6SM SCT020 BKN035
     FM011900 19019G26KT P6SM BKN040 OVC200=

USA.gov is the U.S. government's official web portal to all federal, state and local government web resources and services.